sensor_id;sensor_type;location;lat;lon;timestamp;P1;durP1;ratioP1;P2;durP2;ratioP2
15667;SDS011;7934;48.710;9.024;2024-02-16T00:00:04;3.50;;;2.83;;
15667;SDS011;7934;48.710;9.024;2024-02-16T00:02:32;3.47;;;3.10;;
15667;SDS011;7934;48.710;9.024;2024-02-16T00:04:59;3.20;;;2.90;;
15667;SDS011;7934;48.710;9.024;2024-02-16T00:07:26;2.80;;;2.60;;
15667;SDS011;7934;48.710;9.024;2024-02-16T00:09:54;3.17;;;2.50;;
15667;SDS011;7934;48.710;9.024;2024-02-16T00:12:22;5.80;;;2.40;;
15667;SDS011;7934;48.710;9.024;2024-02-16T00:14:50;2.77;;;2.57;;
15667;SDS011;7934;48.710;9.024;2024-02-16T00:17:17;4.37;;;3.30;;
15667;SDS011;7934;48.710;9.024;2024-02-16T00:19:44;2.83;;;2.50;;
15667;SDS011;7934;48.710;9.024;2024-02-16T00:22:11;5.33;;;3.00;;
15667;SDS011;7934;48.710;9.024;2024-02-16T00:24:39;4.87;;;2.30;;
15667;SDS011;7934;48.710;9.024;2024-02-16T00:27:08;3.23;;;2.90;;
15667;SDS011;7934;48.710;9.024;2024-02-16T00:29:36;5.43;;;2.73;;
15667;SDS011;7934;48.710;9.024;2024-02-16T00:32:04;4.97;;;2.70;;
15667;SDS011;7934;48.710;9.024;2024-02-16T00:34:32;2.80;;;2.60;;
15667;SDS011;7934;48.710;9.024;2024-02-16T00:36:59;2.90;;;2.40;;
15667;SDS011;7934;48.710;9.024;2024-02-16T00:39:26;4.23;;;2.60;;
15667;SDS011;7934;48.710;9.024;2024-02-16T00:41:54;2.10;;;2.00;;
15667;SDS011;7934;48.710;9.024;2024-02-16T00:44:22;6.03;;;2.67;;
15667;SDS011;7934;48.710;9.024;2024-02-16T00:46:50;2.30;;;2.10;;
15667;SDS011;7934;48.710;9.024;2024-02-16T00:49:17;3.87;;;2.50;;
15667;SDS011;7934;48.710;9.024;2024-02-16T00:51:45;3.17;;;2.57;;
15667;SDS011;7934;48.710;9.024;2024-02-16T00:54:12;2.20;;;2.00;;
15667;SDS011;7934;48.710;9.024;2024-02-16T00:56:39;2.83;;;2.60;;
15667;SDS011;7934;48.710;9.024;2024-02-16T00:59:06;2.20;;;2.10;;
15667;SDS011;7934;48.710;9.024;2024-02-16T01:01:34;2.77;;;2.50;;
15667;SDS011;7934;48.710;9.024;2024-02-16T01:04:03;3.03;;;2.40;;
15667;SDS011;7934;48.710;9.024;2024-02-16T01:06:32;2.60;;;2.40;;
15667;SDS011;7934;48.710;9.024;2024-02-16T01:08:59;2.23;;;2.10;;
15667;SDS011;7934;48.710;9.024;2024-02-16T01:11:27;2.77;;;2.50;;
15667;SDS011;7934;48.710;9.024;2024-02-16T01:13:54;4.33;;;2.53;;
15667;SDS011;7934;48.710;9.024;2024-02-16T01:16:23;3.77;;;2.17;;
15667;SDS011;7934;48.710;9.024;2024-02-16T01:18:50;3.40;;;2.13;;
15667;SDS011;7934;48.710;9.024;2024-02-16T01:21:19;2.50;;;2.30;;
15667;SDS011;7934;48.710;9.024;2024-02-16T01:23:46;2.50;;;2.30;;
15667;SDS011;7934;48.710;9.024;2024-02-16T01:26:13;2.40;;;2.17;;
15667;SDS011;7934;48.710;9.024;2024-02-16T01:28:40;3.13;;;2.40;;
15667;SDS011;7934;48.710;9.024;2024-02-16T01:31:09;2.97;;;2.43;;
15667;SDS011;7934;48.710;9.024;2024-02-16T01:33:37;2.93;;;2.47;;
15667;SDS011;7934;48.710;9.024;2024-02-16T01:36:06;3.73;;;2.30;;
15667;SDS011;7934;48.710;9.024;2024-02-16T01:38:35;2.40;;;2.17;;
15667;SDS011;7934;48.710;9.024;2024-02-16T01:41:04;2.93;;;2.63;;
15667;SDS011;7934;48.710;9.024;2024-02-16T01:43:32;2.73;;;2.53;;
15667;SDS011;7934;48.710;9.024;2024-02-16T01:45:59;2.90;;;2.60;;
15667;SDS011;7934;48.710;9.024;2024-02-16T01:48:28;2.47;;;2.30;;
15667;SDS011;7934;48.710;9.024;2024-02-16T01:50:57;6.23;;;2.93;;
15667;SDS011;7934;48.710;9.024;2024-02-16T01:53:24;2.60;;;2.40;;
15667;SDS011;7934;48.710;9.024;2024-02-16T01:55:53;4.17;;;2.77;;
15667;SDS011;7934;48.710;9.024;2024-02-16T01:58:21;2.80;;;2.60;;
15667;SDS011;7934;48.710;9.024;2024-02-16T02:00:48;3.33;;;2.87;;
15667;SDS011;7934;48.710;9.024;2024-02-16T02:03:15;3.00;;;2.80;;
15667;SDS011;7934;48.710;9.024;2024-02-16T02:05:43;5.10;;;2.80;;
15667;SDS011;7934;48.710;9.024;2024-02-16T02:08:12;2.30;;;2.20;;
15667;SDS011;7934;48.710;9.024;2024-02-16T02:10:39;3.17;;;2.90;;
15667;SDS011;7934;48.710;9.024;2024-02-16T02:13:08;3.00;;;2.70;;
15667;SDS011;7934;48.710;9.024;2024-02-16T02:15:35;3.00;;;2.80;;
15667;SDS011;7934;48.710;9.024;2024-02-16T02:18:03;6.30;;;2.93;;
15667;SDS011;7934;48.710;9.024;2024-02-16T02:20:30;4.30;;;3.00;;
15667;SDS011;7934;48.710;9.024;2024-02-16T02:23:01;2.87;;;2.63;;
15667;SDS011;7934;48.710;9.024;2024-02-16T02:25:29;3.23;;;2.87;;
15667;SDS011;7934;48.710;9.024;2024-02-16T02:27:56;3.13;;;2.90;;
15667;SDS011;7934;48.710;9.024;2024-02-16T02:30:23;2.77;;;2.57;;
15667;SDS011;7934;48.710;9.024;2024-02-16T02:32:50;4.13;;;2.80;;
15667;SDS011;7934;48.710;9.024;2024-02-16T02:35:18;4.93;;;3.43;;
15667;SDS011;7934;48.710;9.024;2024-02-16T02:37:45;3.53;;;3.13;;
15667;SDS011;7934;48.710;9.024;2024-02-16T02:40:14;5.30;;;3.13;;
15667;SDS011;7934;48.710;9.024;2024-02-16T02:42:41;2.90;;;2.70;;
15667;SDS011;7934;48.710;9.024;2024-02-16T02:45:11;5.40;;;2.77;;
15667;SDS011;7934;48.710;9.024;2024-02-16T02:47:39;2.93;;;2.70;;
15667;SDS011;7934;48.710;9.024;2024-02-16T02:50:07;3.97;;;2.70;;
15667;SDS011;7934;48.710;9.024;2024-02-16T02:52:34;4.17;;;2.63;;
15667;SDS011;7934;48.710;9.024;2024-02-16T02:55:01;4.77;;;3.30;;
15667;SDS011;7934;48.710;9.024;2024-02-16T02:57:30;5.40;;;3.17;;
15667;SDS011;7934;48.710;9.024;2024-02-16T03:00:02;3.33;;;3.07;;
15667;SDS011;7934;48.710;9.024;2024-02-16T03:02:31;3.73;;;3.23;;
15667;SDS011;7934;48.710;9.024;2024-02-16T03:04:59;4.93;;;3.20;;
15667;SDS011;7934;48.710;9.024;2024-02-16T03:07:27;2.80;;;2.60;;
15667;SDS011;7934;48.710;9.024;2024-02-16T03:09:54;3.47;;;3.17;;
15667;SDS011;7934;48.710;9.024;2024-02-16T03:12:21;5.47;;;3.07;;
15667;SDS011;7934;48.710;9.024;2024-02-16T03:14:50;2.60;;;2.40;;
15667;SDS011;7934;48.710;9.024;2024-02-16T03:17:17;2.37;;;2.17;;
15667;SDS011;7934;48.710;9.024;2024-02-16T03:19:44;3.60;;;2.50;;
15667;SDS011;7934;48.710;9.024;2024-02-16T03:22:12;3.63;;;2.33;;
15667;SDS011;7934;48.710;9.024;2024-02-16T03:24:39;2.80;;;2.60;;
15667;SDS011;7934;48.710;9.024;2024-02-16T03:27:06;2.97;;;2.50;;
15667;SDS011;7934;48.710;9.024;2024-02-16T03:29:33;3.20;;;3.00;;
15667;SDS011;7934;48.710;9.024;2024-02-16T03:32:02;4.40;;;3.10;;
15667;SDS011;7934;48.710;9.024;2024-02-16T03:34:29;2.80;;;2.60;;
15667;SDS011;7934;48.710;9.024;2024-02-16T03:36:57;2.90;;;2.70;;
15667;SDS011;7934;48.710;9.024;2024-02-16T03:39:24;6.10;;;2.80;;
15667;SDS011;7934;48.710;9.024;2024-02-16T03:41:52;3.77;;;3.20;;
15667;SDS011;7934;48.710;9.024;2024-02-16T03:44:19;4.18;;;3.50;;
15667;SDS011;7934;48.710;9.024;2024-02-16T03:46:46;3.90;;;2.70;;
15667;SDS011;7934;48.710;9.024;2024-02-16T03:49:15;3.30;;;2.53;;
15667;SDS011;7934;48.710;9.024;2024-02-16T03:51:42;3.43;;;3.07;;
15667;SDS011;7934;48.710;9.024;2024-02-16T03:54:09;2.60;;;2.40;;
15667;SDS011;7934;48.710;9.024;2024-02-16T03:56:36;3.67;;;2.60;;
15667;SDS011;7934;48.710;9.024;2024-02-16T03:59:03;6.47;;;2.80;;
15667;SDS011;7934;48.710;9.024;2024-02-16T04:01:31;2.73;;;2.57;;
15667;SDS011;7934;48.710;9.024;2024-02-16T04:03:58;2.43;;;2.23;;
15667;SDS011;7934;48.710;9.024;2024-02-16T04:06:27;3.10;;;2.80;;
15667;SDS011;7934;48.710;9.024;2024-02-16T04:08:54;5.70;;;2.87;;
15667;SDS011;7934;48.710;9.024;2024-02-16T04:11:22;6.20;;;3.50;;
15667;SDS011;7934;48.710;9.024;2024-02-16T04:13:49;3.20;;;2.80;;
15667;SDS011;7934;48.710;9.024;2024-02-16T04:16:16;3.33;;;3.03;;
15667;SDS011;7934;48.710;9.024;2024-02-16T04:18:47;3.23;;;2.93;;
15667;SDS011;7934;48.710;9.024;2024-02-16T04:21:14;2.53;;;2.37;;
15667;SDS011;7934;48.710;9.024;2024-02-16T04:23:43;4.40;;;3.50;;
15667;SDS011;7934;48.710;9.024;2024-02-16T04:26:10;4.03;;;2.90;;
15667;SDS011;7934;48.710;9.024;2024-02-16T04:28:37;3.17;;;2.93;;
15667;SDS011;7934;48.710;9.024;2024-02-16T04:31:05;2.80;;;2.60;;
15667;SDS011;7934;48.710;9.024;2024-02-16T04:33:32;2.73;;;2.53;;
15667;SDS011;7934;48.710;9.024;2024-02-16T04:35:59;2.70;;;2.50;;
15667;SDS011;7934;48.710;9.024;2024-02-16T04:38:26;2.90;;;2.70;;
15667;SDS011;7934;48.710;9.024;2024-02-16T04:40:55;3.10;;;2.53;;
15667;SDS011;7934;48.710;9.024;2024-02-16T04:43:22;3.63;;;2.80;;
15667;SDS011;7934;48.710;9.024;2024-02-16T04:45:50;5.57;;;2.97;;
15667;SDS011;7934;48.710;9.024;2024-02-16T04:48:18;2.50;;;2.40;;
15667;SDS011;7934;48.710;9.024;2024-02-16T04:50:46;2.93;;;2.73;;
15667;SDS011;7934;48.710;9.024;2024-02-16T04:53:13;2.33;;;2.23;;
15667;SDS011;7934;48.710;9.024;2024-02-16T04:55:40;2.50;;;2.40;;
15667;SDS011;7934;48.710;9.024;2024-02-16T04:58:09;2.97;;;2.77;;
15667;SDS011;7934;48.710;9.024;2024-02-16T05:00:36;3.23;;;2.93;;
15667;SDS011;7934;48.710;9.024;2024-02-16T05:03:04;5.77;;;3.40;;
15667;SDS011;7934;48.710;9.024;2024-02-16T05:05:31;4.47;;;2.60;;
15667;SDS011;7934;48.710;9.024;2024-02-16T05:07:58;3.07;;;2.83;;
15667;SDS011;7934;48.710;9.024;2024-02-16T05:10:26;2.93;;;2.73;;
15667;SDS011;7934;48.710;9.024;2024-02-16T05:12:53;3.43;;;3.13;;
15667;SDS011;7934;48.710;9.024;2024-02-16T05:15:22;3.27;;;2.80;;
15667;SDS011;7934;48.710;9.024;2024-02-16T05:17:49;2.90;;;2.70;;
15667;SDS011;7934;48.710;9.024;2024-02-16T05:20:16;6.80;;;3.10;;
15667;SDS011;7934;48.710;9.024;2024-02-16T05:22:44;4.57;;;2.60;;
15667;SDS011;7934;48.710;9.024;2024-02-16T05:25:12;2.73;;;2.53;;
15667;SDS011;7934;48.710;9.024;2024-02-16T05:27:39;2.60;;;2.40;;
15667;SDS011;7934;48.710;9.024;2024-02-16T05:30:08;2.90;;;2.70;;
15667;SDS011;7934;48.710;9.024;2024-02-16T05:32:39;4.80;;;3.10;;
15667;SDS011;7934;48.710;9.024;2024-02-16T05:35:07;2.87;;;2.67;;
15667;SDS011;7934;48.710;9.024;2024-02-16T05:37:38;2.90;;;2.70;;
15667;SDS011;7934;48.710;9.024;2024-02-16T05:40:08;3.20;;;2.90;;
15667;SDS011;7934;48.710;9.024;2024-02-16T05:42:45;3.37;;;3.10;;
15667;SDS011;7934;48.710;9.024;2024-02-16T05:45:13;2.60;;;2.40;;
15667;SDS011;7934;48.710;9.024;2024-02-16T05:47:42;3.40;;;3.00;;
15667;SDS011;7934;48.710;9.024;2024-02-16T05:50:10;2.73;;;2.47;;
15667;SDS011;7934;48.710;9.024;2024-02-16T05:52:38;2.97;;;2.70;;
15667;SDS011;7934;48.710;9.024;2024-02-16T05:55:06;4.80;;;3.10;;
15667;SDS011;7934;48.710;9.024;2024-02-16T05:57:33;4.47;;;3.10;;
15667;SDS011;7934;48.710;9.024;2024-02-16T06:00:01;9.33;;;2.97;;
15667;SDS011;7934;48.710;9.024;2024-02-16T06:02:32;4.07;;;2.90;;
15667;SDS011;7934;48.710;9.024;2024-02-16T06:05:00;3.00;;;2.67;;
15667;SDS011;7934;48.710;9.024;2024-02-16T06:07:28;5.43;;;3.13;;
15667;SDS011;7934;48.710;9.024;2024-02-16T06:09:55;3.00;;;2.80;;
15667;SDS011;7934;48.710;9.024;2024-02-16T06:12:23;11.33;;;3.50;;
15667;SDS011;7934;48.710;9.024;2024-02-16T06:14:50;2.97;;;2.60;;
15667;SDS011;7934;48.710;9.024;2024-02-16T06:17:18;3.47;;;2.50;;
15667;SDS011;7934;48.710;9.024;2024-02-16T06:19:46;2.93;;;2.70;;
15667;SDS011;7934;48.710;9.024;2024-02-16T06:22:14;2.87;;;2.67;;
15667;SDS011;7934;48.710;9.024;2024-02-16T06:24:41;3.30;;;2.80;;
15667;SDS011;7934;48.710;9.024;2024-02-16T06:27:09;3.33;;;3.03;;
15667;SDS011;7934;48.710;9.024;2024-02-16T06:29:36;3.07;;;2.70;;
15667;SDS011;7934;48.710;9.024;2024-02-16T06:32:04;5.33;;;2.90;;
15667;SDS011;7934;48.710;9.024;2024-02-16T06:34:32;2.87;;;2.60;;
15667;SDS011;7934;48.710;9.024;2024-02-16T06:36:59;3.27;;;2.73;;
15667;SDS011;7934;48.710;9.024;2024-02-16T06:39:28;5.43;;;2.70;;
15667;SDS011;7934;48.710;9.024;2024-02-16T06:41:56;3.50;;;3.10;;
15667;SDS011;7934;48.710;9.024;2024-02-16T06:44:23;3.23;;;2.73;;
15667;SDS011;7934;48.710;9.024;2024-02-16T06:46:50;4.40;;;3.20;;
15667;SDS011;7934;48.710;9.024;2024-02-16T06:49:17;3.43;;;2.70;;
15667;SDS011;7934;48.710;9.024;2024-02-16T06:51:44;4.53;;;3.07;;
15667;SDS011;7934;48.710;9.024;2024-02-16T06:54:12;3.37;;;3.10;;
15667;SDS011;7934;48.710;9.024;2024-02-16T06:56:40;6.83;;;3.90;;
15667;SDS011;7934;48.710;9.024;2024-02-16T06:59:09;3.20;;;3.00;;
15667;SDS011;7934;48.710;9.024;2024-02-16T07:01:36;3.13;;;2.83;;
15667;SDS011;7934;48.710;9.024;2024-02-16T07:04:03;4.20;;;3.80;;
15667;SDS011;7934;48.710;9.024;2024-02-16T07:06:30;6.07;;;3.20;;
15667;SDS011;7934;48.710;9.024;2024-02-16T07:08:58;4.67;;;3.20;;
15667;SDS011;7934;48.710;9.024;2024-02-16T07:11:25;3.37;;;3.07;;
15667;SDS011;7934;48.710;9.024;2024-02-16T07:13:54;3.60;;;3.30;;
15667;SDS011;7934;48.710;9.024;2024-02-16T07:16:21;4.50;;;2.70;;
15667;SDS011;7934;48.710;9.024;2024-02-16T07:18:49;4.33;;;3.23;;
15667;SDS011;7934;48.710;9.024;2024-02-16T07:21:16;3.40;;;3.20;;
15667;SDS011;7934;48.710;9.024;2024-02-16T07:23:45;5.27;;;3.60;;
15667;SDS011;7934;48.710;9.024;2024-02-16T07:26:13;5.17;;;3.53;;
15667;SDS011;7934;48.710;9.024;2024-02-16T07:28:42;3.83;;;3.07;;
15667;SDS011;7934;48.710;9.024;2024-02-16T07:31:11;6.43;;;2.87;;
15667;SDS011;7934;48.710;9.024;2024-02-16T07:33:39;3.53;;;3.20;;
15667;SDS011;7934;48.710;9.024;2024-02-16T07:36:07;5.17;;;2.87;;
15667;SDS011;7934;48.710;9.024;2024-02-16T07:38:34;6.37;;;3.07;;
15667;SDS011;7934;48.710;9.024;2024-02-16T07:41:02;3.07;;;2.87;;
15667;SDS011;7934;48.710;9.024;2024-02-16T07:43:31;4.95;;;4.03;;
15667;SDS011;7934;48.710;9.024;2024-02-16T07:45:58;4.13;;;3.50;;
15667;SDS011;7934;48.710;9.024;2024-02-16T07:48:27;5.37;;;3.70;;
15667;SDS011;7934;48.710;9.024;2024-02-16T07:50:54;8.33;;;3.57;;
15667;SDS011;7934;48.710;9.024;2024-02-16T07:53:23;9.50;;;3.90;;
15667;SDS011;7934;48.710;9.024;2024-02-16T07:55:50;10.27;;;3.63;;
15667;SDS011;7934;48.710;9.024;2024-02-16T07:58:17;5.77;;;3.00;;
15667;SDS011;7934;48.710;9.024;2024-02-16T08:00:44;4.87;;;2.93;;
15667;SDS011;7934;48.710;9.024;2024-02-16T08:03:11;4.43;;;3.10;;
15667;SDS011;7934;48.710;9.024;2024-02-16T08:05:40;3.93;;;3.20;;
15667;SDS011;7934;48.710;9.024;2024-02-16T08:08:07;6.33;;;3.70;;
15667;SDS011;7934;48.710;9.024;2024-02-16T08:10:34;4.20;;;3.43;;
15667;SDS011;7934;48.710;9.024;2024-02-16T08:13:02;4.17;;;3.40;;
15667;SDS011;7934;48.710;9.024;2024-02-16T08:15:29;4.47;;;3.57;;
15667;SDS011;7934;48.710;9.024;2024-02-16T08:17:57;4.77;;;3.90;;
15667;SDS011;7934;48.710;9.024;2024-02-16T08:20:24;5.77;;;3.70;;
15667;SDS011;7934;48.710;9.024;2024-02-16T08:22:52;6.60;;;3.50;;
15667;SDS011;7934;48.710;9.024;2024-02-16T08:25:20;5.63;;;3.13;;
15667;SDS011;7934;48.710;9.024;2024-02-16T08:27:47;3.73;;;2.90;;
15667;SDS011;7934;48.710;9.024;2024-02-16T08:30:15;3.47;;;3.17;;
15667;SDS011;7934;48.710;9.024;2024-02-16T08:32:42;3.40;;;3.10;;
15667;SDS011;7934;48.710;9.024;2024-02-16T08:35:09;5.20;;;2.80;;
15667;SDS011;7934;48.710;9.024;2024-02-16T08:37:39;7.37;;;3.20;;
15667;SDS011;7934;48.710;9.024;2024-02-16T08:40:08;3.23;;;2.87;;
15667;SDS011;7934;48.710;9.024;2024-02-16T08:42:39;2.93;;;2.73;;
15667;SDS011;7934;48.710;9.024;2024-02-16T08:45:06;6.97;;;3.00;;
15667;SDS011;7934;48.710;9.024;2024-02-16T08:47:34;6.43;;;3.07;;
15667;SDS011;7934;48.710;9.024;2024-02-16T08:50:01;3.13;;;2.90;;
15667;SDS011;7934;48.710;9.024;2024-02-16T08:52:28;5.90;;;3.07;;
15667;SDS011;7934;48.710;9.024;2024-02-16T08:54:55;4.57;;;2.83;;
15667;SDS011;7934;48.710;9.024;2024-02-16T08:57:24;2.90;;;2.37;;
15667;SDS011;7934;48.710;9.024;2024-02-16T08:59:51;4.70;;;2.90;;
15667;SDS011;7934;48.710;9.024;2024-02-16T09:02:18;10.00;;;3.00;;
15667;SDS011;7934;48.710;9.024;2024-02-16T09:04:45;5.73;;;2.50;;
15667;SDS011;7934;48.710;9.024;2024-02-16T09:07:12;2.77;;;2.57;;
15667;SDS011;7934;48.710;9.024;2024-02-16T09:09:40;5.97;;;2.70;;
15667;SDS011;7934;48.710;9.024;2024-02-16T09:12:07;6.17;;;2.37;;
15667;SDS011;7934;48.710;9.024;2024-02-16T09:14:36;4.70;;;2.67;;
15667;SDS011;7934;48.710;9.024;2024-02-16T09:17:03;3.90;;;1.97;;
15667;SDS011;7934;48.710;9.024;2024-02-16T09:19:30;4.63;;;2.93;;
15667;SDS011;7934;48.710;9.024;2024-02-16T09:21:57;3.87;;;2.20;;
15667;SDS011;7934;48.710;9.024;2024-02-16T09:24:27;4.37;;;2.20;;
15667;SDS011;7934;48.710;9.024;2024-02-16T09:26:54;3.10;;;2.00;;
15667;SDS011;7934;48.710;9.024;2024-02-16T09:29:22;2.67;;;2.10;;
15667;SDS011;7934;48.710;9.024;2024-02-16T09:31:50;2.23;;;2.03;;
15667;SDS011;7934;48.710;9.024;2024-02-16T09:34:17;4.93;;;2.40;;
15667;SDS011;7934;48.710;9.024;2024-02-16T09:36:44;3.00;;;2.10;;
15667;SDS011;7934;48.710;9.024;2024-02-16T09:39:12;4.80;;;2.50;;
15667;SDS011;7934;48.710;9.024;2024-02-16T09:41:41;5.07;;;2.30;;
15667;SDS011;7934;48.710;9.024;2024-02-16T09:44:08;5.03;;;2.20;;
15667;SDS011;7934;48.710;9.024;2024-02-16T09:46:36;3.73;;;2.23;;
15667;SDS011;7934;48.710;9.024;2024-02-16T09:49:04;3.97;;;2.20;;
15667;SDS011;7934;48.710;9.024;2024-02-16T09:51:32;2.20;;;2.10;;
15667;SDS011;7934;48.710;9.024;2024-02-16T09:54:03;2.70;;;2.50;;
15667;SDS011;7934;48.710;9.024;2024-02-16T09:56:33;3.77;;;2.80;;
15667;SDS011;7934;48.710;9.024;2024-02-16T09:59:00;5.10;;;2.60;;
15667;SDS011;7934;48.710;9.024;2024-02-16T10:01:27;2.87;;;2.50;;
15667;SDS011;7934;48.710;9.024;2024-02-16T10:03:59;3.57;;;2.30;;
15667;SDS011;7934;48.710;9.024;2024-02-16T10:06:27;3.20;;;2.53;;
15667;SDS011;7934;48.710;9.024;2024-02-16T10:08:55;6.70;;;2.40;;
15667;SDS011;7934;48.710;9.024;2024-02-16T10:11:23;3.90;;;2.27;;
15667;SDS011;7934;48.710;9.024;2024-02-16T10:13:55;3.73;;;2.67;;
15667;SDS011;7934;48.710;9.024;2024-02-16T10:16:23;6.57;;;2.63;;
15667;SDS011;7934;48.710;9.024;2024-02-16T10:18:50;3.87;;;2.30;;
15667;SDS011;7934;48.710;9.024;2024-02-16T10:21:24;4.27;;;2.27;;
15667;SDS011;7934;48.710;9.024;2024-02-16T10:24:00;12.23;;;2.60;;
15667;SDS011;7934;48.710;9.024;2024-02-16T10:26:28;6.23;;;2.37;;
15667;SDS011;7934;48.710;9.024;2024-02-16T10:28:55;5.87;;;2.40;;
15667;SDS011;7934;48.710;9.024;2024-02-16T10:31:23;4.17;;;2.80;;
15667;SDS011;7934;48.710;9.024;2024-02-16T10:33:56;3.40;;;2.43;;
15667;SDS011;7934;48.710;9.024;2024-02-16T10:36:23;4.93;;;2.93;;
15667;SDS011;7934;48.710;9.024;2024-02-16T10:38:53;2.80;;;2.23;;
15667;SDS011;7934;48.710;9.024;2024-02-16T10:41:22;5.33;;;2.07;;
15667;SDS011;7934;48.710;9.024;2024-02-16T10:43:51;4.83;;;2.43;;
15667;SDS011;7934;48.710;9.024;2024-02-16T10:46:19;4.10;;;2.23;;
15667;SDS011;7934;48.710;9.024;2024-02-16T10:48:47;3.87;;;2.83;;
15667;SDS011;7934;48.710;9.024;2024-02-16T10:51:14;3.43;;;2.63;;
15667;SDS011;7934;48.710;9.024;2024-02-16T10:53:42;6.73;;;2.47;;
15667;SDS011;7934;48.710;9.024;2024-02-16T10:56:10;2.80;;;2.47;;
15667;SDS011;7934;48.710;9.024;2024-02-16T10:58:39;4.73;;;2.40;;
15667;SDS011;7934;48.710;9.024;2024-02-16T11:01:09;4.50;;;2.70;;
15667;SDS011;7934;48.710;9.024;2024-02-16T11:03:37;6.93;;;3.00;;
15667;SDS011;7934;48.710;9.024;2024-02-16T11:06:11;4.30;;;2.87;;
15667;SDS011;7934;48.710;9.024;2024-02-16T11:08:41;6.37;;;2.70;;
15667;SDS011;7934;48.710;9.024;2024-02-16T11:11:08;9.47;;;3.00;;
15667;SDS011;7934;48.710;9.024;2024-02-16T11:13:37;3.07;;;2.87;;
15667;SDS011;7934;48.710;9.024;2024-02-16T11:16:09;4.40;;;3.37;;
15667;SDS011;7934;48.710;9.024;2024-02-16T11:18:38;3.40;;;2.60;;
15667;SDS011;7934;48.710;9.024;2024-02-16T11:21:06;5.23;;;2.60;;
15667;SDS011;7934;48.710;9.024;2024-02-16T11:23:34;2.93;;;2.53;;
15667;SDS011;7934;48.710;9.024;2024-02-16T11:26:02;4.93;;;2.30;;
15667;SDS011;7934;48.710;9.024;2024-02-16T11:28:31;4.40;;;2.57;;
15667;SDS011;7934;48.710;9.024;2024-02-16T11:30:59;6.93;;;2.57;;
15667;SDS011;7934;48.710;9.024;2024-02-16T11:33:27;2.90;;;2.53;;
15667;SDS011;7934;48.710;9.024;2024-02-16T11:35:55;3.77;;;2.50;;
15667;SDS011;7934;48.710;9.024;2024-02-16T11:38:22;4.50;;;2.60;;
15667;SDS011;7934;48.710;9.024;2024-02-16T11:40:57;4.53;;;2.20;;
15667;SDS011;7934;48.710;9.024;2024-02-16T11:43:24;5.17;;;2.30;;
15667;SDS011;7934;48.710;9.024;2024-02-16T11:45:53;5.00;;;2.53;;
15667;SDS011;7934;48.710;9.024;2024-02-16T11:48:21;4.90;;;2.47;;
15667;SDS011;7934;48.710;9.024;2024-02-16T11:50:57;3.63;;;2.50;;
15667;SDS011;7934;48.710;9.024;2024-02-16T11:53:25;5.70;;;2.40;;
15667;SDS011;7934;48.710;9.024;2024-02-16T11:55:52;4.73;;;3.07;;
15667;SDS011;7934;48.710;9.024;2024-02-16T11:58:19;6.67;;;2.70;;
15667;SDS011;7934;48.710;9.024;2024-02-16T12:00:47;3.87;;;3.00;;
15667;SDS011;7934;48.710;9.024;2024-02-16T12:03:18;8.03;;;2.53;;
15667;SDS011;7934;48.710;9.024;2024-02-16T12:05:51;3.50;;;2.23;;
15667;SDS011;7934;48.710;9.024;2024-02-16T12:08:19;2.67;;;2.30;;
15667;SDS011;7934;48.710;9.024;2024-02-16T12:10:47;4.87;;;3.03;;
15667;SDS011;7934;48.710;9.024;2024-02-16T12:13:15;7.13;;;2.87;;
15667;SDS011;7934;48.710;9.024;2024-02-16T12:15:44;5.23;;;2.80;;
15667;SDS011;7934;48.710;9.024;2024-02-16T12:18:18;3.77;;;2.93;;
15667;SDS011;7934;48.710;9.024;2024-02-16T12:20:57;5.23;;;2.40;;
15667;SDS011;7934;48.710;9.024;2024-02-16T12:23:25;4.67;;;2.27;;
15667;SDS011;7934;48.710;9.024;2024-02-16T12:25:53;4.17;;;2.13;;
15667;SDS011;7934;48.710;9.024;2024-02-16T12:28:24;3.70;;;2.50;;
15667;SDS011;7934;48.710;9.024;2024-02-16T12:30:52;3.77;;;2.60;;
15667;SDS011;7934;48.710;9.024;2024-02-16T12:33:19;4.13;;;2.17;;
15667;SDS011;7934;48.710;9.024;2024-02-16T12:35:46;4.40;;;2.27;;
15667;SDS011;7934;48.710;9.024;2024-02-16T12:38:15;2.87;;;2.20;;
15667;SDS011;7934;48.710;9.024;2024-02-16T12:40:44;4.37;;;2.10;;
15667;SDS011;7934;48.710;9.024;2024-02-16T12:43:11;5.97;;;2.13;;
15667;SDS011;7934;48.710;9.024;2024-02-16T12:45:39;3.30;;;2.20;;
15667;SDS011;7934;48.710;9.024;2024-02-16T12:48:06;3.00;;;1.80;;
15667;SDS011;7934;48.710;9.024;2024-02-16T12:50:35;2.10;;;2.00;;
15667;SDS011;7934;48.710;9.024;2024-02-16T12:53:04;6.40;;;2.43;;
15667;SDS011;7934;48.710;9.024;2024-02-16T12:55:32;3.93;;;2.10;;
15667;SDS011;7934;48.710;9.024;2024-02-16T12:58:01;4.40;;;2.20;;
15667;SDS011;7934;48.710;9.024;2024-02-16T13:00:28;4.70;;;2.23;;
15667;SDS011;7934;48.710;9.024;2024-02-16T13:02:55;5.00;;;2.43;;
15667;SDS011;7934;48.710;9.024;2024-02-16T13:05:22;6.78;;;2.90;;
15667;SDS011;7934;48.710;9.024;2024-02-16T13:07:50;7.07;;;3.03;;
15667;SDS011;7934;48.710;9.024;2024-02-16T13:10:17;4.57;;;2.40;;
15667;SDS011;7934;48.710;9.024;2024-02-16T13:12:46;6.17;;;2.27;;
15667;SDS011;7934;48.710;9.024;2024-02-16T13:15:13;7.40;;;3.03;;
15667;SDS011;7934;48.710;9.024;2024-02-16T13:17:40;10.83;;;2.80;;
15667;SDS011;7934;48.710;9.024;2024-02-16T13:20:08;3.27;;;2.40;;
15667;SDS011;7934;48.710;9.024;2024-02-16T13:22:35;6.10;;;2.43;;
15667;SDS011;7934;48.710;9.024;2024-02-16T13:25:03;9.53;;;2.63;;
15667;SDS011;7934;48.710;9.024;2024-02-16T13:27:30;5.70;;;2.60;;
15667;SDS011;7934;48.710;9.024;2024-02-16T13:29:59;4.40;;;2.13;;
15667;SDS011;7934;48.710;9.024;2024-02-16T13:32:26;7.93;;;2.20;;
15667;SDS011;7934;48.710;9.024;2024-02-16T13:34:53;2.50;;;2.30;;
15667;SDS011;7934;48.710;9.024;2024-02-16T13:37:22;11.20;;;2.50;;
15667;SDS011;7934;48.710;9.024;2024-02-16T13:39:50;3.97;;;2.20;;
15667;SDS011;7934;48.710;9.024;2024-02-16T13:42:17;2.97;;;2.47;;
15667;SDS011;7934;48.710;9.024;2024-02-16T13:44:45;5.87;;;2.30;;
15667;SDS011;7934;48.710;9.024;2024-02-16T13:47:14;4.00;;;2.37;;
15667;SDS011;7934;48.710;9.024;2024-02-16T13:49:41;5.10;;;2.37;;
15667;SDS011;7934;48.710;9.024;2024-02-16T13:52:08;5.40;;;2.50;;
15667;SDS011;7934;48.710;9.024;2024-02-16T13:54:35;2.50;;;2.27;;
15667;SDS011;7934;48.710;9.024;2024-02-16T13:57:03;2.40;;;2.23;;
15667;SDS011;7934;48.710;9.024;2024-02-16T13:59:30;2.63;;;2.43;;
15667;SDS011;7934;48.710;9.024;2024-02-16T14:01:58;6.03;;;2.65;;
15667;SDS011;7934;48.710;9.024;2024-02-16T14:04:27;6.90;;;2.47;;
15667;SDS011;7934;48.710;9.024;2024-02-16T14:06:54;4.10;;;2.20;;
15667;SDS011;7934;48.710;9.024;2024-02-16T14:09:22;6.03;;;2.87;;
15667;SDS011;7934;48.710;9.024;2024-02-16T14:11:51;4.87;;;2.37;;
15667;SDS011;7934;48.710;9.024;2024-02-16T14:14:18;7.80;;;2.33;;
15667;SDS011;7934;48.710;9.024;2024-02-16T14:16:46;3.47;;;2.33;;
15667;SDS011;7934;48.710;9.024;2024-02-16T14:19:13;4.37;;;2.63;;
15667;SDS011;7934;48.710;9.024;2024-02-16T14:21:41;7.13;;;2.03;;
15667;SDS011;7934;48.710;9.024;2024-02-16T14:24:10;5.33;;;2.03;;
15667;SDS011;7934;48.710;9.024;2024-02-16T14:26:37;8.07;;;2.37;;
15667;SDS011;7934;48.710;9.024;2024-02-16T14:29:05;13.40;;;2.63;;
15667;SDS011;7934;48.710;9.024;2024-02-16T14:31:32;7.93;;;2.20;;
15667;SDS011;7934;48.710;9.024;2024-02-16T14:33:59;8.13;;;2.23;;
15667;SDS011;7934;48.710;9.024;2024-02-16T14:36:27;4.33;;;2.17;;
15667;SDS011;7934;48.710;9.024;2024-02-16T14:38:55;4.77;;;2.27;;
15667;SDS011;7934;48.710;9.024;2024-02-16T14:41:22;6.13;;;2.00;;
15667;SDS011;7934;48.710;9.024;2024-02-16T14:43:50;4.67;;;1.73;;
15667;SDS011;7934;48.710;9.024;2024-02-16T14:46:17;4.70;;;1.70;;
15667;SDS011;7934;48.710;9.024;2024-02-16T14:48:45;3.87;;;2.00;;
15667;SDS011;7934;48.710;9.024;2024-02-16T14:51:13;5.83;;;1.83;;
15667;SDS011;7934;48.710;9.024;2024-02-16T14:53:40;5.17;;;1.70;;
15667;SDS011;7934;48.710;9.024;2024-02-16T14:56:09;7.17;;;2.10;;
15667;SDS011;7934;48.710;9.024;2024-02-16T14:58:36;5.17;;;1.90;;
15667;SDS011;7934;48.710;9.024;2024-02-16T15:01:03;4.53;;;1.90;;
15667;SDS011;7934;48.710;9.024;2024-02-16T15:03:31;5.80;;;1.80;;